Bookmark and Share
Track history (hours):
 

Cmb Sakura

Last reported at 2014-Apr-01 11:33 UTC. Time now 2014-Apr-18 08:13 UTC.
Position N 35°52' W 006°19'.
Warning: this ship's position is 16 days out of date.

Length 225 m; draft 8 m.

Type: Cargo ship. MMSI: 371784000.

NotesDate/timePositionNaut miles runAvg speedWind from/ knotsBaromVisibWave heightAir tempDewpointWater temp
2014-Apr-01 11:33N 35°52' W 006°19'1211.3
2014-Apr-01 10:29N 35°57' W 006°06'1312.4
2014-Apr-01 09:28N 35°58' W 005°50'1011.5
2014-Apr-01 08:33N 35°58' W 005°37'9 9.3
2014-Apr-01 07:33N 36°01' W 005°26'7 7.4
2014-Apr-01 06:33N 36°07' W 005°22'0 0.1
2014-Apr-01 05:32N 36°07' W 005°22'0 0.0
2014-Apr-01 04:32N 36°07' W 005°22'0 0.2
2014-Apr-01 03:32N 36°07' W 005°22'0 0.0
2014-Apr-01 02:32N 36°07' W 005°22'0 0.0
2014-Apr-01 01:32N 36°07' W 005°22'0 0.1
2014-Apr-01 00:32N 36°07' W 005°22'0 0.1
2014-Mar-31 23:32N 36°07' W 005°22'0 0.2
2014-Mar-31 22:32N 36°07' W 005°22'0 0.0
2014-Mar-31 21:32N 36°07' W 005°22'0 0.0
2014-Mar-31 20:32N 36°07' W 005°22'0 0.1
2014-Mar-31 19:33N 36°07' W 005°22'5 4.8
2014-Mar-31 18:33N 36°06' W 005°16'1010.1
2014-Mar-31 17:33N 36°12' W 005°06'2 1.8
2014-Mar-31 16:28N 36°12' W 005°04'6 0.4
2014-Mar-31 02:16N 36°08' W 004°59'0 0.0
2014-Mar-31 01:25N 36°08' W 004°59'1 0.4
2014-Mar-30 23:31N 36°09' W 004°59'3 0.7
2014-Mar-30 19:28N 36°11' W 005°01'1 0.7
2014-Mar-30 18:28N 36°12' W 005°02'1 0.7
2014-Mar-30 17:34N 36°12' W 005°02'3 1.0
2014-Mar-30 14:17N 36°12' W 004°58'3 0.4
2014-Mar-30 07:23N 36°10' W 005°01'1 0.9
2014-Mar-30 06:23N 36°10' W 005°02'1 0.7
2014-Mar-30 05:26N 36°10' W 005°02'1 0.7
2014-Mar-30 04:32N 36°10' W 005°03'1 0.5
2014-Mar-30 03:29N 36°10' W 005°04'0 0.2
2014-Mar-30 02:29N 36°10' W 005°03'5 5.4
2014-Mar-30 01:34N 36°06' W 005°08'25312.0
2014-Mar-29 04:27N 36°35' E 000°04'7612.2
2014-Mar-28 22:16N 36°50' E 001°37'1112.2
2014-Mar-28 21:20N 36°52' E 001°50'2312.6
2014-Mar-28 19:33N 36°56' E 002°18'1212.0
2014-Mar-28 18:31N 36°58' E 002°33'1312.8
2014-Mar-28 17:32N 37°01' E 002°49'1312.9
2014-Mar-28 16:33N 37°03' E 003°04'1413.6
2014-Mar-28 15:33N 37°05' E 003°21'2512.2
2014-Mar-28 13:33N 37°10' E 003°51'3213.1
2014-Mar-28 11:05N 37°16' E 004°31'713.6
2014-Mar-28 10:33N 37°17' E 004°40'35110.2
2014-Mar-27 00:07N 37°15' E 012°02'8112.1
2014-Mar-26 17:26N 36°42' E 013°33'1713.2
2014-Mar-26 16:07N 36°34' E 013°52'913.0
2014-Mar-26 15:27N 36°30' E 014°02'1313.3
2014-Mar-26 14:27N 36°25' E 014°18'  

Dump ship's entire track history

sailing weather and tide predictions

Cmb Sakura — 3EGO3 — position and weather